Time;durP1;ratioP1;P1;durP2;ratioP2;P2;SDS_P1;SDS_P2;PMS_P1;PMS_P2;Temp;Humidity;BMP_temperature;BMP_pressure;BME280_temperature;BME280_humidity;BME280_pressure;Samples;Min_cycle;Max_cycle;Signal;HPM_P1;HPM_P2
2023/02/19 00:01:35;;;;;;;0.40;0.32;;;3.50;99.90;;;;;;4996997;28;20025;-76
2023/02/19 00:04:07;;;;;;;0.30;0.30;;;3.50;99.90;;;;;;4997322;28;20054;-76
2023/02/19 00:06:33;;;;;;;0.20;0.20;;;3.50;99.90;;;;;;4978827;28;20517;-76
2023/02/19 00:08:59;;;;;;;0.17;0.17;;;3.50;99.90;;;;;;5011913;23;20100;-76
2023/02/19 00:11:27;;;;;;;0.10;0.10;;;3.50;99.90;;;;;;4997205;28;20487;-76
2023/02/19 00:13:56;;;;;;;0.10;0.10;;;3.50;99.90;;;;;;4996487;28;20045;-76
2023/02/19 00:16:27;;;;;;;0.20;0.20;;;3.60;99.90;;;;;;4997044;28;20030;-77
2023/02/19 00:18:54;;;;;;;0.30;0.30;;;3.60;99.90;;;;;;4991216;23;20047;-76
2023/02/19 00:21:23;;;;;;;0.10;0.10;;;3.60;99.90;;;;;;4958506;29;20038;-77
2023/02/19 00:23:53;;;;;;;0.20;0.20;;;3.60;99.90;;;;;;4958206;28;20502;-76
2023/02/19 00:26:20;;;;;;;0.10;0.10;;;3.60;99.90;;;;;;4939620;29;20061;-76
2023/02/19 00:28:46;;;;;;;0.10;0.10;;;3.70;99.90;;;;;;4938529;29;20038;-77
2023/02/19 00:31:24;;;;;;;0.20;0.20;;;3.70;99.90;;;;;;4939292;29;20028;-77
2023/02/19 00:33:52;;;;;;;0.20;0.20;;;3.70;99.90;;;;;;4941087;29;20031;-76
2023/02/19 00:36:18;;;;;;;1.45;1.35;;;3.70;99.90;;;;;;4940506;29;20159;-76
2023/02/19 00:38:44;;;;;;;0.10;0.10;;;3.70;99.90;;;;;;4941050;29;20035;-76
2023/02/19 00:41:20;;;;;;;0.10;0.10;;;3.70;99.90;;;;;;4957540;29;20027;-76
2023/02/19 00:43:50;;;;;;;0.10;0.10;;;3.70;99.90;;;;;;4940564;29;20497;-76
2023/02/19 00:46:18;;;;;;;1.63;1.50;;;3.70;99.90;;;;;;4957892;29;20515;-76
2023/02/19 00:48:44;;;;;;;5.13;4.75;;;3.70;99.90;;;;;;4957091;28;20023;-76
2023/02/19 00:51:10;;;;;;;0.10;0.10;;;3.70;99.90;;;;;;4957656;29;20027;-76
2023/02/19 00:53:38;;;;;;;0.20;0.20;;;3.70;99.90;;;;;;4955485;28;20034;-76
2023/02/19 00:56:04;;;;;;;0.10;0.10;;;3.80;99.90;;;;;;4958276;29;20055;-76
2023/02/19 00:58:30;;;;;;;0.20;0.20;;;3.70;99.90;;;;;;4958425;28;20031;-76
2023/02/19 01:00:55;;;;;;;1.00;1.00;;;3.80;99.90;;;;;;4957372;29;20028;-76
2023/02/19 01:03:21;;;;;;;0.20;0.20;;;3.80;99.90;;;;;;4958309;28;20023;-76
2023/02/19 01:05:48;;;;;;;1.75;1.65;;;3.70;99.90;;;;;;4931308;28;20035;-76
2023/02/19 01:08:14;;;;;;;0.20;0.20;;;3.70;99.90;;;;;;4940375;29;20122;-76
2023/02/19 01:10:40;;;;;;;0.10;0.10;;;3.70;99.90;;;;;;4955915;28;20082;-77
2023/02/19 01:13:05;;;;;;;0.17;0.17;;;3.70;99.90;;;;;;4957571;29;20496;-76
2023/02/19 01:15:34;;;;;;;0.20;0.20;;;3.70;99.90;;;;;;4956867;29;20081;-76
2023/02/19 01:18:00;;;;;;;0.25;0.25;;;3.70;99.90;;;;;;4957087;28;20033;-76
2023/02/19 01:20:26;;;;;;;0.13;0.13;;;3.60;99.90;;;;;;4957159;29;20035;-76
2023/02/19 01:22:52;;;;;;;0.20;0.20;;;3.60;99.90;;;;;;4957283;28;20159;-76
2023/02/19 01:25:17;;;;;;;0.30;0.30;;;3.60;99.90;;;;;;4957040;29;20074;-76
2023/02/19 01:27:43;;;;;;;0.20;0.20;;;3.60;99.90;;;;;;4958235;28;20023;-76
2023/02/19 01:30:09;;;;;;;0.20;0.20;;;3.60;99.90;;;;;;4976466;28;20456;-76
2023/02/19 01:32:35;;;;;;;0.15;0.15;;;3.60;99.90;;;;;;4976069;28;20037;-76
2023/02/19 01:35:00;;;;;;;0.20;0.20;;;3.60;99.90;;;;;;4962164;28;20059;-76
2023/02/19 01:37:26;;;;;;;0.10;0.10;;;3.60;99.90;;;;;;4956039;28;20039;-76
2023/02/19 01:39:52;;;;;;;0.13;0.13;;;3.60;99.90;;;;;;4952808;28;20030;-76
2023/02/19 01:42:17;;;;;;;0.10;0.10;;;3.60;99.90;;;;;;4955533;28;20110;-76
2023/02/19 01:44:46;;;;;;;0.20;0.20;;;3.60;99.90;;;;;;4957040;29;20030;-76
2023/02/19 01:47:13;;;;;;;0.20;0.20;;;3.60;99.90;;;;;;4956422;28;20035;-76
2023/02/19 01:49:47;;;;;;;0.10;0.10;;;3.50;99.90;;;;;;4956525;28;20027;-76
2023/02/19 01:52:16;;;;;;;0.15;0.15;;;3.50;99.90;;;;;;4963780;28;20034;-76
2023/02/19 01:54:44;;;;;;;0.20;0.20;;;3.50;99.90;;;;;;4975668;28;20472;-76
2023/02/19 01:57:18;;;;;;;0.20;0.20;;;3.50;99.90;;;;;;4976442;28;20042;-77
2023/02/19 01:59:45;;;;;;;0.20;0.20;;;3.50;99.90;;;;;;4973654;28;20038;-76
2023/02/19 02:02:10;;;;;;;0.20;0.20;;;3.50;99.90;;;;;;4939593;29;20023;-77
2023/02/19 02:04:36;;;;;;;0.22;0.17;;;3.50;99.90;;;;;;4956769;29;20540;-76
2023/02/19 02:10:18;;;;;;;0.10;0.10;;;3.50;99.90;;;;;;4956446;28;20488;-76
2023/02/19 02:12:34;;;;;;;0.20;0.20;;;3.40;99.90;;;;;;4995057;28;20093;-76
2023/02/19 02:15:00;;;;;;;0.20;0.20;;;3.40;99.90;;;;;;4995542;28;20451;-77
2023/02/19 02:17:33;;;;;;;0.10;0.10;;;3.40;99.90;;;;;;4994136;28;20034;-76
2023/02/19 02:20:18;;;;;;;;;;;3.40;99.90;;;;;;4988537;28;20037;-76
2023/02/19 02:22:53;;;;;;;0.20;0.20;;;3.40;99.90;;;;;;4976077;28;20316;-77
2023/02/19 02:25:31;;;;;;;0.20;0.20;;;3.50;99.90;;;;;;4976254;28;20464;-76
2023/02/19 02:28:17;;;;;;;0.35;0.35;;;3.40;99.90;;;;;;4992400;23;20476;-76
2023/02/19 02:30:55;;;;;;;0.20;0.20;;;3.40;99.90;;;;;;4997929;28;20038;-76
2023/02/19 02:33:42;;;;;;;0.20;0.20;;;3.30;99.90;;;;;;4999732;28;20030;-77
2023/02/19 02:36:15;;;;;;;0.10;0.10;;;3.30;99.90;;;;;;4981692;28;20049;-77
2023/02/19 02:38:43;;;;;;;0.20;0.20;;;3.20;99.90;;;;;;4998961;28;20065;-76
2023/02/19 02:41:10;;;;;;;0.20;0.20;;;3.20;99.90;;;;;;4999075;28;20030;-77
2023/02/19 02:43:36;;;;;;;0.20;0.20;;;3.30;99.90;;;;;;5021614;23;20064;-76
2023/02/19 02:46:01;;;;;;;0.20;0.20;;;3.30;99.90;;;;;;4998247;28;20483;-76
2023/02/19 02:48:52;;;;;;;0.10;0.10;;;3.30;99.90;;;;;;4997668;28;20101;-76
2023/02/19 02:51:37;;;;;;;0.10;0.10;;;3.20;99.90;;;;;;4980153;28;20073;-76
2023/02/19 02:56:56;;;;;;;0.10;0.10;;;3.10;99.90;;;;;;4998157;28;20093;-76
2023/02/19 02:59:24;;;;;;;0.20;0.20;;;3.00;99.90;;;;;;4997361;28;20034;-76
2023/02/19 03:02:09;;;;;;;0.20;0.20;;;3.00;99.90;;;;;;4979773;28;20023;-76
2023/02/19 03:07:49;;;;;;;0.17;0.17;;;2.80;99.90;;;;;;4998022;28;20534;-76
2023/02/19 03:10:19;;;;;;;0.22;0.20;;;2.70;99.90;;;;;;4997350;28;20062;-76
2023/02/19 03:21:17;;;;;;;0.15;0.15;;;2.40;99.90;;;;;;4997527;28;19912;-76
2023/02/19 03:26:32;;;;;;;0.10;0.10;;;2.30;99.90;;;;;;4997109;28;20108;-76
2023/02/19 03:31:44;;;;;;;0.10;0.10;;;2.10;99.90;;;;;;4996996;28;20041;-76
2023/02/19 03:34:17;;;;;;;0.10;0.10;;;2.10;99.90;;;;;;4979137;28;20030;-75
2023/02/19 03:36:53;;;;;;;9.40;8.52;;;2.10;99.90;;;;;;4979245;28;20126;-75
2023/02/19 03:39:21;;;;;;;0.77;0.47;;;2.10;99.90;;;;;;4996662;28;20033;-76
2023/02/19 03:41:53;;;;;;;0.17;0.17;;;2.10;99.90;;;;;;4996595;28;20030;-76
2023/02/19 03:44:43;;;;;;;0.20;0.20;;;2.00;99.90;;;;;;4996645;28;20034;-76
2023/02/19 03:47:21;;;;;;;0.40;0.40;;;2.10;99.90;;;;;;4996868;28;20037;-76
2023/02/19 03:50:07;;;;;;;0.10;0.10;;;2.00;99.90;;;;;;4996575;28;20031;-75
2023/02/19 03:52:56;;;;;;;0.15;0.15;;;2.00;99.90;;;;;;4993963;28;20395;-75
2023/02/19 03:55:36;;;;;;;0.20;0.20;;;2.00;99.90;;;;;;4996108;28;20034;-76
2023/02/19 03:58:27;;;;;;;0.10;0.10;;;2.00;99.90;;;;;;4990703;28;20030;-75
2023/02/19 04:01:04;;;;;;;0.30;0.28;;;2.00;99.90;;;;;;4989035;28;20030;-76
2023/02/19 04:03:42;;;;;;;0.10;0.10;;;2.10;99.90;;;;;;4986219;28;20018;-76
2023/02/19 04:06:24;;;;;;;0.13;0.13;;;2.00;99.90;;;;;;4996083;28;20109;-76
2023/02/19 04:08:57;;;;;;;4.22;3.83;;;1.90;99.90;;;;;;4996451;28;20058;-75
2023/02/19 04:11:24;;;;;;;2.00;1.90;;;1.90;99.90;;;;;;4978543;28;20025;-76
2023/02/19 04:13:58;;;;;;;0.10;0.10;;;1.80;99.90;;;;;;4996074;28;20069;-76
2023/02/19 04:16:28;;;;;;;0.20;0.20;;;1.80;99.90;;;;;;4995838;28;20023;-76
2023/02/19 04:18:58;;;;;;;0.10;0.10;;;1.80;99.90;;;;;;4996049;28;20065;-76
2023/02/19 04:21:25;;;;;;;0.20;0.20;;;1.80;99.90;;;;;;4996230;28;20575;-76
2023/02/19 04:23:51;;;;;;;0.20;0.20;;;1.80;99.90;;;;;;4995658;28;20385;-76
2023/02/19 04:26:20;;;;;;;0.10;0.10;;;1.70;99.90;;;;;;4995601;28;20033;-76
2023/02/19 04:28:46;;;;;;;0.20;0.20;;;1.70;99.90;;;;;;4995549;28;20022;-75
2023/02/19 04:31:11;;;;;;;0.20;0.20;;;1.60;99.90;;;;;;4976436;28;20526;-75
2023/02/19 04:33:37;;;;;;;0.22;0.22;;;1.50;99.90;;;;;;4975994;28;20029;-76
2023/02/19 04:36:03;;;;;;;0.10;0.10;;;1.40;99.90;;;;;;4976477;28;20105;-76
2023/02/19 04:38:28;;;;;;;0.20;0.20;;;1.50;99.90;;;;;;4979171;28;20044;-76
2023/02/19 04:40:54;;;;;;;0.10;0.10;;;1.40;99.90;;;;;;4994232;28;20023;-76
2023/02/19 04:43:20;;;;;;;0.10;0.10;;;1.40;99.90;;;;;;4977208;28;20035;-75
2023/02/19 04:45:45;;;;;;;0.10;0.10;;;1.30;99.90;;;;;;4995119;28;20022;-76
2023/02/19 04:48:11;;;;;;;0.10;0.10;;;1.20;99.90;;;;;;4995317;28;20396;-76
2023/02/19 04:50:38;;;;;;;0.15;0.15;;;1.30;99.90;;;;;;4995005;28;20478;-76
2023/02/19 04:53:03;;;;;;;0.10;0.10;;;1.30;99.90;;;;;;4994888;28;20027;-76
2023/02/19 04:55:29;;;;;;;0.10;0.10;;;1.30;99.90;;;;;;4995019;28;20030;-76
2023/02/19 04:57:54;;;;;;;0.43;0.43;;;1.20;99.90;;;;;;4977617;28;20022;-75
2023/02/19 05:00:20;;;;;;;0.10;0.10;;;1.20;99.90;;;;;;4994788;28;20369;-76
2023/02/19 05:02:45;;;;;;;0.10;0.10;;;1.10;99.90;;;;;;4994998;28;20029;-76
2023/02/19 05:05:11;;;;;;;0.15;0.15;;;1.10;99.90;;;;;;4994922;28;20041;-76
2023/02/19 05:07:36;;;;;;;0.20;0.20;;;1.20;99.90;;;;;;4994532;28;20037;-76
2023/02/19 05:10:02;;;;;;;0.20;0.20;;;1.10;99.90;;;;;;4994788;28;20036;-76
2023/02/19 05:12:29;;;;;;;0.10;0.10;;;1.20;99.90;;;;;;4994511;28;20026;-76
2023/02/19 05:14:55;;;;;;;0.20;0.20;;;1.20;99.90;;;;;;4993812;28;20030;-76
2023/02/19 05:17:20;;;;;;;0.10;0.10;;;1.10;99.90;;;;;;4994104;28;20037;-76
2023/02/19 05:19:46;;;;;;;0.35;0.25;;;1.20;99.90;;;;;;4994486;28;20034;-76
2023/02/19 05:22:11;;;;;;;0.20;0.20;;;1.20;99.90;;;;;;4993365;28;20121;-76
2023/02/19 05:24:37;;;;;;;0.20;0.20;;;1.20;99.90;;;;;;4994843;28;20391;-75
2023/02/19 05:27:03;;;;;;;0.10;0.10;;;1.20;99.90;;;;;;4994558;28;20542;-76
2023/02/19 05:29:30;;;;;;;0.22;0.22;;;1.10;99.90;;;;;;4994761;28;20037;-76
2023/02/19 05:31:55;;;;;;;0.32;0.20;;;1.20;99.90;;;;;;4994939;28;20443;-76
2023/02/19 05:34:21;;;;;;;0.10;0.10;;;1.20;99.90;;;;;;4994710;28;20089;-76
2023/02/19 05:36:46;;;;;;;0.10;0.10;;;1.20;99.90;;;;;;4994364;28;20031;-75
2023/02/19 05:39:12;;;;;;;0.30;0.28;;;1.10;99.90;;;;;;4994423;28;20514;-76
2023/02/19 05:41:38;;;;;;;0.98;0.90;;;1.20;99.90;;;;;;4994397;28;20065;-76
2023/02/19 05:44:03;;;;;;;0.20;0.20;;;1.20;99.90;;;;;;4994300;28;20038;-76
2023/02/19 05:46:29;;;;;;;0.10;0.10;;;1.30;99.90;;;;;;4993233;28;20498;-75
2023/02/19 05:48:56;;;;;;;0.30;0.30;;;1.20;99.90;;;;;;4994289;28;20030;-76
2023/02/19 05:51:24;;;;;;;0.17;0.17;;;1.20;99.90;;;;;;4994308;28;20030;-75
2023/02/19 05:53:50;;;;;;;0.20;0.20;;;1.10;99.90;;;;;;4994244;28;20489;-76
2023/02/19 05:56:22;;;;;;;1.63;1.52;;;1.00;99.90;;;;;;4994401;28;20053;-76
2023/02/19 05:58:48;;;;;;;0.10;0.10;;;1.00;99.90;;;;;;4993948;28;20034;-75
2023/02/19 06:01:16;;;;;;;0.10;0.10;;;1.00;99.90;;;;;;4994240;28;20023;-75
2023/02/19 06:03:41;;;;;;;0.10;0.10;;;1.10;99.90;;;;;;4994021;28;20026;-76
2023/02/19 06:06:08;;;;;;;0.10;0.10;;;0.90;99.90;;;;;;4993968;28;20030;-76
2023/02/19 06:08:34;;;;;;;0.20;0.20;;;0.80;99.90;;;;;;4994147;28;20575;-75
2023/02/19 06:10:59;;;;;;;0.20;0.20;;;0.70;99.90;;;;;;4994071;28;20098;-76
2023/02/19 06:13:27;;;;;;;0.15;0.15;;;0.80;99.90;;;;;;4992490;28;20018;-76
2023/02/19 06:15:52;;;;;;;0.30;0.30;;;0.70;99.90;;;;;;4994044;28;20046;-76
2023/02/19 06:18:18;;;;;;;0.38;0.30;;;0.70;99.90;;;;;;4994320;28;20030;-76
2023/02/19 06:20:43;;;;;;;0.10;0.10;;;0.70;99.90;;;;;;4993967;28;20392;-75
2023/02/19 06:23:09;;;;;;;0.10;0.10;;;0.80;99.90;;;;;;4994266;28;20030;-75
2023/02/19 06:25:34;;;;;;;0.20;0.20;;;0.90;99.90;;;;;;4994015;28;20023;-76
2023/02/19 06:28:00;;;;;;;0.20;0.20;;;0.90;99.90;;;;;;4994075;28;20026;-76
2023/02/19 06:30:25;;;;;;;0.65;0.30;;;0.90;99.90;;;;;;4992511;28;20026;-76
2023/02/19 06:32:52;;;;;;;0.20;0.20;;;0.90;99.90;;;;;;4993612;28;20029;-76
2023/02/19 06:35:18;;;;;;;0.10;0.10;;;1.00;99.90;;;;;;4989439;28;20038;-76
2023/02/19 06:37:46;;;;;;;0.30;0.20;;;1.00;99.90;;;;;;4993383;28;20027;-76
2023/02/19 06:40:11;;;;;;;0.20;0.20;;;1.00;99.90;;;;;;4993456;28;20018;-76
2023/02/19 06:42:37;;;;;;;0.10;0.10;;;1.00;99.90;;;;;;4993271;28;20089;-76
2023/02/19 06:45:03;;;;;;;0.10;0.10;;;1.10;99.90;;;;;;4988999;28;20448;-75
2023/02/19 06:47:32;;;;;;;0.32;0.30;;;1.10;99.90;;;;;;4974289;28;20392;-76
2023/02/19 06:49:58;;;;;;;0.15;0.15;;;1.10;99.90;;;;;;4956814;28;20392;-76
2023/02/19 06:52:24;;;;;;;0.20;0.20;;;1.10;99.90;;;;;;4982777;28;20030;-76
2023/02/19 06:54:50;;;;;;;0.20;0.20;;;1.10;99.90;;;;;;4993459;28;20484;-76
2023/02/19 06:57:17;;;;;;;0.10;0.10;;;1.10;99.90;;;;;;4992689;28;20113;-76
2023/02/19 06:59:43;;;;;;;0.20;0.20;;;1.10;99.90;;;;;;4993423;28;20488;-77
2023/02/19 07:02:10;;;;;;;0.10;0.10;;;1.10;99.90;;;;;;4993149;28;20122;-76
2023/02/19 07:04:36;;;;;;;0.10;0.10;;;1.10;99.90;;;;;;4975797;28;20034;-76
2023/02/19 07:07:01;;;;;;;0.40;0.30;;;1.20;99.90;;;;;;4993620;28;20034;-76
2023/02/19 07:09:27;;;;;;;1.08;0.60;;;1.20;99.90;;;;;;4975946;28;20031;-76
2023/02/19 07:11:53;;;;;;;0.10;0.10;;;1.20;99.90;;;;;;4991971;28;20483;-76
2023/02/19 07:14:19;;;;;;;1.10;0.25;;;1.20;99.90;;;;;;4993274;28;20403;-76
2023/02/19 07:16:46;;;;;;;0.22;0.22;;;1.20;99.90;;;;;;4997009;28;20037;-76
2023/02/19 07:19:13;;;;;;;0.15;0.15;;;1.30;99.90;;;;;;4996724;28;20029;-76
2023/02/19 07:21:41;;;;;;;0.32;0.22;;;1.40;99.90;;;;;;4996740;28;20025;-76
2023/02/19 07:24:07;;;;;;;0.17;0.17;;;1.40;99.90;;;;;;4996753;28;20026;-76
2023/02/19 07:26:33;;;;;;;4.95;1.20;;;1.40;99.90;;;;;;4979447;28;20057;-75
2023/02/19 07:29:00;;;;;;;0.10;0.10;;;1.40;99.90;;;;;;4996844;28;20034;-76
2023/02/19 07:31:26;;;;;;;0.75;0.75;;;1.60;99.90;;;;;;4995975;28;20462;-76
2023/02/19 07:33:52;;;;;;;0.55;0.55;;;1.60;99.90;;;;;;4996816;28;20036;-76
2023/02/19 07:36:19;;;;;;;0.10;0.10;;;1.70;99.90;;;;;;4975631;28;20023;-76
2023/02/19 07:38:44;;;;;;;1.85;1.75;;;1.70;99.90;;;;;;4997098;28;20480;-76
2023/02/19 07:41:10;;;;;;;0.47;0.47;;;1.70;99.90;;;;;;4995371;28;20026;-77
2023/02/19 07:43:37;;;;;;;1.40;1.30;;;1.80;99.90;;;;;;4996180;28;20034;-76
2023/02/19 07:46:15;;;;;;;0.25;0.25;;;1.90;99.90;;;;;;4996185;28;20073;-76
2023/02/19 07:48:43;;;;;;;0.45;0.45;;;1.90;99.90;;;;;;4995426;28;20034;-75
2023/02/19 07:51:12;;;;;;;0.10;0.10;;;2.10;99.90;;;;;;4996370;28;20018;-76
2023/02/19 07:53:37;;;;;;;0.17;0.17;;;2.10;99.90;;;;;;4995588;28;20037;-76
2023/02/19 07:56:05;;;;;;;0.10;0.10;;;2.20;99.90;;;;;;4996094;28;20026;-76
2023/02/19 07:58:31;;;;;;;0.22;0.22;;;2.20;99.90;;;;;;4996047;28;20030;-76
2023/02/19 08:01:04;;;;;;;0.20;0.20;;;2.30;99.90;;;;;;4996275;28;20527;-76
2023/02/19 08:03:30;;;;;;;0.20;0.20;;;2.40;99.90;;;;;;4996225;28;20023;-76
2023/02/19 08:05:56;;;;;;;0.20;0.20;;;2.50;99.90;;;;;;4995864;28;20018;-76
2023/02/19 08:08:22;;;;;;;0.20;0.20;;;2.50;99.90;;;;;;4995922;28;20030;-76
2023/02/19 08:13:33;;;;;;;0.10;0.10;;;2.70;99.90;;;;;;4995603;28;20551;-76
2023/02/19 08:15:58;;;;;;;0.17;0.17;;;2.80;99.90;;;;;;4995830;28;20105;-76
2023/02/19 08:18:25;;;;;;;0.20;0.20;;;2.90;99.90;;;;;;4995697;28;20500;-76
2023/02/19 08:20:51;;;;;;;0.20;0.20;;;3.00;99.90;;;;;;4995723;28;20045;-76
2023/02/19 08:23:19;;;;;;;0.10;0.10;;;3.00;99.90;;;;;;4995658;28;20022;-76
2023/02/19 08:25:45;;;;;;;0.47;0.40;;;3.10;99.90;;;;;;4994566;28;20102;-76
2023/02/19 08:28:11;;;;;;;0.43;0.35;;;3.20;99.90;;;;;;4995066;28;20130;-76
2023/02/19 08:30:38;;;;;;;0.60;0.60;;;3.20;99.90;;;;;;4995211;28;20492;-76
2023/02/19 08:33:06;;;;;;;0.40;0.40;;;3.30;99.90;;;;;;4995390;28;20026;-76
2023/02/19 08:35:34;;;;;;;0.47;0.47;;;3.40;99.90;;;;;;4995335;28;20026;-76
2023/02/19 08:38:00;;;;;;;2.30;2.20;;;3.50;99.90;;;;;;4978157;28;20030;-76
2023/02/19 08:40:25;;;;;;;7.47;6.47;;;3.60;99.90;;;;;;4994927;28;20109;-76
2023/02/19 08:42:52;;;;;;;0.40;0.40;;;3.70;99.90;;;;;;5046121;23;20046;-77
2023/02/19 08:45:17;;;;;;;0.10;0.10;;;3.80;99.90;;;;;;4981253;28;20057;-77
2023/02/19 08:47:43;;;;;;;0.10;0.10;;;3.90;99.90;;;;;;4981573;28;20105;-78
2023/02/19 08:50:09;;;;;;;0.35;0.35;;;3.90;99.90;;;;;;4981629;28;20041;-77
2023/02/19 08:52:35;;;;;;;0.20;0.20;;;4.10;99.90;;;;;;4986258;23;20017;-77
2023/02/19 08:55:02;;;;;;;0.22;0.22;;;4.10;99.90;;;;;;4980071;28;20089;-77
2023/02/19 08:57:28;;;;;;;0.20;0.20;;;4.20;99.90;;;;;;4978227;28;20133;-77
2023/02/19 08:59:55;;;;;;;0.10;0.10;;;4.30;99.90;;;;;;4961922;28;20503;-77
2023/02/19 09:02:21;;;;;;;0.20;0.20;;;4.30;99.90;;;;;;4977710;28;20109;-77
2023/02/19 09:04:47;;;;;;;0.30;0.30;;;4.50;99.90;;;;;;4961471;28;20491;-77
2023/02/19 09:07:12;;;;;;;0.10;0.10;;;4.60;99.90;;;;;;4959584;28;20139;-77
2023/02/19 09:09:38;;;;;;;0.20;0.20;;;4.70;99.90;;;;;;4941165;29;20023;-76
2023/02/19 09:12:10;;;;;;;0.20;0.20;;;4.80;99.90;;;;;;4958694;29;20027;-77
2023/02/19 09:14:37;;;;;;;0.20;0.20;;;4.90;99.90;;;;;;4958790;28;20027;-77
2023/02/19 09:17:04;;;;;;;0.20;0.20;;;5.00;99.90;;;;;;4983422;28;20180;-77
2023/02/19 09:19:30;;;;;;;0.20;0.20;;;5.10;99.90;;;;;;4998439;28;20052;-77
2023/02/19 09:21:57;;;;;;;0.20;0.20;;;5.10;99.90;;;;;;4993788;28;20030;-76
2023/02/19 09:24:23;;;;;;;0.20;0.20;;;5.20;99.90;;;;;;4958905;28;20022;-76
2023/02/19 09:26:50;;;;;;;0.20;0.20;;;5.40;99.90;;;;;;4967047;28;20058;-77
2023/02/19 09:29:18;;;;;;;0.20;0.20;;;5.50;99.90;;;;;;4955978;28;20448;-76
2023/02/19 09:31:44;;;;;;;0.20;0.20;;;5.60;99.90;;;;;;4972474;28;20031;-76
2023/02/19 09:34:10;;;;;;;0.30;0.30;;;5.60;99.90;;;;;;4976380;28;20084;-76
2023/02/19 09:36:36;;;;;;;0.35;0.20;;;5.60;99.90;;;;;;4969299;28;20542;-76
2023/02/19 09:39:03;;;;;;;0.20;0.20;;;5.70;99.90;;;;;;4956905;28;20027;-75
2023/02/19 09:41:36;;;;;;;0.20;0.20;;;5.80;99.90;;;;;;4956595;28;20051;-76
2023/02/19 09:44:04;;;;;;;0.20;0.20;;;5.90;99.90;;;;;;4957570;28;20401;-76
2023/02/19 09:46:44;;;;;;;0.20;0.20;;;6.00;99.90;;;;;;4956922;29;20023;-76
2023/02/19 09:49:18;;;;;;;0.20;0.20;;;6.00;99.90;;;;;;4973520;28;20358;-76
2023/02/19 09:52:04;;;;;;;0.28;0.25;;;6.00;99.90;;;;;;4975935;28;20035;-77
2023/02/19 09:54:32;;;;;;;0.52;0.52;;;6.20;99.90;;;;;;4958525;28;20491;-76
2023/02/19 09:57:01;;;;;;;0.20;0.20;;;6.20;99.90;;;;;;4958750;28;20056;-76
2023/02/19 09:59:38;;;;;;;0.28;0.28;;;6.30;99.90;;;;;;4975834;28;20027;-77
2023/02/19 10:02:16;;;;;;;0.17;0.17;;;6.20;99.90;;;;;;4958667;29;20030;-77
2023/02/19 10:04:44;;;;;;;0.20;0.20;;;6.30;99.90;;;;;;4957453;29;20095;-77
2023/02/19 10:07:22;;;;;;;0.20;0.20;;;6.50;99.90;;;;;;4940913;29;20396;-76
2023/02/19 10:10:02;;;;;;;0.52;0.15;;;6.70;99.90;;;;;;4958233;29;20102;-76
2023/02/19 10:12:29;;;;;;;0.10;0.10;;;6.80;99.90;;;;;;4977248;28;20023;-77
2023/02/19 10:15:24;;;;;;;0.20;0.20;;;7.00;99.90;;;;;;4962651;28;20033;-77
2023/02/19 10:17:49;;;;;;;0.20;0.20;;;7.10;99.90;;;;;;4972431;28;20039;-78
2023/02/19 10:20:18;;;;;;;0.20;0.20;;;7.00;99.90;;;;;;4979309;28;20436;-77
2023/02/19 10:22:44;;;;;;;0.25;0.25;;;6.90;99.90;;;;;;4979078;28;20015;-77
2023/02/19 10:25:16;;;;;;;0.30;0.30;;;7.00;99.90;;;;;;4978159;28;20061;-77
2023/02/19 10:27:42;;;;;;;0.20;0.20;;;6.90;99.90;;;;;;4978674;28;20035;-77
2023/02/19 10:30:19;;;;;;;1.48;0.40;;;6.90;99.90;;;;;;4959402;28;20116;-76
2023/02/19 10:33:00;;;;;;;0.20;0.20;;;7.00;99.90;;;;;;4957927;28;20027;-76
2023/02/19 10:35:26;;;;;;;0.15;0.15;;;6.90;99.90;;;;;;4975585;28;20031;-76
2023/02/19 10:37:52;;;;;;;0.20;0.20;;;7.00;99.90;;;;;;4943968;29;20508;-76
2023/02/19 10:40:24;;;;;;;0.20;0.20;;;7.00;99.90;;;;;;4956406;29;20071;-77
2023/02/19 10:42:54;;;;;;;0.30;0.30;;;7.00;99.90;;;;;;4978851;23;20042;-76
2023/02/19 10:45:31;;;;;;;0.30;0.30;;;7.10;99.90;;;;;;4994805;28;20022;-77
2023/02/19 10:47:57;;;;;;;2.75;0.50;;;7.10;99.90;;;;;;4975537;28;20210;-77
2023/02/19 10:50:34;;;;;;;0.20;0.20;;;7.20;99.90;;;;;;4977524;28;20047;-76
2023/02/19 10:53:01;;;;;;;0.20;0.20;;;7.30;99.90;;;;;;4978707;28;20027;-76
2023/02/19 10:55:33;;;;;;;0.20;0.20;;;7.20;99.90;;;;;;4979561;28;20059;-76
2023/02/19 10:58:27;;;;;;;0.85;0.32;;;7.20;99.90;;;;;;4978758;28;20038;-76
2023/02/19 11:01:10;;;;;;;0.20;0.20;;;7.10;99.90;;;;;;4980414;28;20062;-76
2023/02/19 11:03:36;;;;;;;0.20;0.20;;;7.20;99.90;;;;;;4978325;28;20057;-76
2023/02/19 11:06:05;;;;;;;2.70;0.40;;;7.40;99.90;;;;;;4983383;28;20055;-76
2023/02/19 11:08:39;;;;;;;0.35;0.35;;;7.40;99.90;;;;;;4978928;28;20077;-76
2023/02/19 11:11:05;;;;;;;0.20;0.20;;;7.40;99.90;;;;;;4979034;28;20086;-76
2023/02/19 11:13:36;;;;;;;0.20;0.20;;;7.30;99.90;;;;;;4978396;28;20038;-76
2023/02/19 11:16:02;;;;;;;0.85;0.85;;;7.30;99.90;;;;;;4961242;28;20027;-76
2023/02/19 11:18:31;;;;;;;0.20;0.20;;;7.30;99.90;;;;;;4978268;28;20047;-76
2023/02/19 11:21:02;;;;;;;0.30;0.30;;;7.40;99.90;;;;;;4978373;28;20023;-76
2023/02/19 11:23:30;;;;;;;0.20;0.20;;;7.40;99.90;;;;;;4994499;28;20026;-76
2023/02/19 11:25:59;;;;;;;0.22;0.22;;;7.40;99.90;;;;;;4993361;28;20029;-76
2023/02/19 11:28:41;;;;;;;0.20;0.20;;;7.40;99.90;;;;;;4998056;28;20027;-76
2023/02/19 11:31:31;;;;;;;0.20;0.20;;;7.40;99.90;;;;;;4992596;28;20027;-76
2023/02/19 11:34:02;;;;;;;0.20;0.20;;;7.40;99.90;;;;;;4978656;28;20522;-76
2023/02/19 11:36:32;;;;;;;0.30;0.30;;;7.50;99.90;;;;;;4980519;28;20031;-77
2023/02/19 11:39:16;;;;;;;0.28;0.28;;;7.50;99.90;;;;;;4965216;28;20023;-77
2023/02/19 11:41:59;;;;;;;0.30;0.30;;;7.70;99.90;;;;;;4980420;28;20023;-74
2023/02/19 11:44:55;;;;;;;0.20;0.20;;;7.80;99.90;;;;;;4977104;28;20098;-74
2023/02/19 11:47:48;;;;;;;2.92;2.25;;;7.80;99.90;;;;;;4977195;28;20113;-74
2023/02/19 11:50:25;;;;;;;3.70;0.43;;;7.90;99.90;;;;;;4982290;28;20019;-74
2023/02/19 11:52:59;;;;;;;0.20;0.20;;;7.90;99.90;;;;;;4996709;28;20398;-74
2023/02/19 11:55:33;;;;;;;0.47;0.30;;;7.90;99.90;;;;;;4996245;28;20038;-76
2023/02/19 11:58:12;;;;;;;0.20;0.20;;;7.90;99.90;;;;;;4973141;28;20030;-74
2023/02/19 12:00:50;;;;;;;0.52;0.52;;;8.00;99.90;;;;;;4977135;28;20038;-75
2023/02/19 12:03:59;;;;;;;0.30;0.30;;;7.90;99.90;;;;;;4977306;28;20027;-75
2023/02/19 12:06:38;;;;;;;4.63;0.73;;;7.70;99.90;;;;;;4977056;28;20027;-75
2023/02/19 12:09:29;;;;;;;0.20;0.20;;;7.70;99.90;;;;;;4977214;28;20078;-75
2023/02/19 12:12:01;;;;;;;1.27;0.40;;;7.60;99.90;;;;;;4977506;28;20079;-75
2023/02/19 12:15:04;;;;;;;0.20;0.20;;;7.60;99.90;;;;;;4959663;28;20069;-75
2023/02/19 12:17:43;;;;;;;0.10;0.10;;;7.50;99.90;;;;;;4976879;28;20046;-75
2023/02/19 12:20:17;;;;;;;0.20;0.20;;;7.60;99.90;;;;;;4976837;28;20050;-75
2023/02/19 12:23:19;;;;;;;0.65;0.50;;;7.60;99.90;;;;;;4977310;28;20507;-75
2023/02/19 12:25:52;;;;;;;0.20;0.20;;;7.70;99.90;;;;;;4976762;28;20026;-75
2023/02/19 12:28:40;;;;;;;4.85;0.98;;;7.60;99.90;;;;;;4956669;28;20039;-75
2023/02/19 12:31:37;;;;;;;2.03;1.20;;;7.60;99.90;;;;;;4957459;29;20031;-75
2023/02/19 12:34:35;;;;;;;0.22;0.22;;;7.60;99.90;;;;;;4993122;23;20046;-75
2023/02/19 12:37:03;;;;;;;0.38;0.38;;;7.70;99.90;;;;;;4983298;28;20392;-75
2023/02/19 12:39:53;;;;;;;0.70;0.70;;;7.90;99.90;;;;;;4976476;28;20058;-75
2023/02/19 12:42:57;;;;;;;10.63;0.52;;;7.80;99.90;;;;;;4976485;28;20055;-75
2023/02/19 12:48:41;;;;;;;5.07;0.28;;;7.70;99.90;;;;;;4994096;28;20080;-75
2023/02/19 12:51:11;;;;;;;0.20;0.20;;;7.60;99.90;;;;;;4995380;28;20025;-76
2023/02/19 12:53:45;;;;;;;0.20;0.20;;;7.60;99.90;;;;;;4995160;28;20026;-75
2023/02/19 12:56:23;;;;;;;0.20;0.20;;;7.70;99.90;;;;;;4994884;28;20029;-75
2023/02/19 12:58:53;;;;;;;0.20;0.20;;;8.00;99.90;;;;;;4995228;28;20054;-74
2023/02/19 13:01:27;;;;;;;0.10;0.10;;;8.00;99.90;;;;;;4993440;28;20393;-76
2023/02/19 13:04:15;;;;;;;0.35;0.35;;;8.10;99.90;;;;;;4994691;28;20022;-75
2023/02/19 13:07:00;;;;;;;9.75;1.55;;;8.20;99.90;;;;;;5001675;23;20039;-75
2023/02/19 13:09:44;;;;;;;0.13;0.13;;;8.40;99.90;;;;;;4994749;28;20022;-76
2023/02/19 13:12:31;;;;;;;0.20;0.20;;;8.50;99.90;;;;;;4994459;28;20023;-75
2023/02/19 13:15:01;;;;;;;0.30;0.30;;;8.60;99.90;;;;;;4994960;28;20021;-75
2023/02/19 13:17:44;;;;;;;0.20;0.20;;;8.40;99.90;;;;;;4994161;28;20027;-76
2023/02/19 13:25:56;;;;;;;0.20;0.20;;;8.70;99.90;;;;;;4976001;28;20053;-76
2023/02/19 13:28:40;;;;;;;;;;;8.80;99.90;;;;;;4976272;28;20251;-75
2023/02/19 13:31:23;;;;;;;0.20;0.20;;;8.70;99.90;;;;;;4975621;28;19913;-75
2023/02/19 13:33:57;;;;;;;0.20;0.20;;;8.40;99.90;;;;;;4970312;28;20417;-75
2023/02/19 13:36:26;;;;;;;0.20;0.20;;;8.10;99.90;;;;;;4941162;28;20031;-75
2023/02/19 13:38:55;;;;;;;0.20;0.20;;;8.10;99.90;;;;;;4972586;28;20061;-75
2023/02/19 13:41:32;;;;;;;0.40;0.40;;;8.10;99.90;;;;;;4975728;28;20015;-76
2023/02/19 13:44:02;;;;;;;0.93;0.30;;;7.70;99.90;;;;;;4976291;28;20025;-75
2023/02/19 13:46:44;;;;;;;0.35;0.35;;;7.60;99.90;;;;;;4976386;28;20081;-74
2023/02/19 13:49:28;;;;;;;0.22;0.22;;;7.30;99.90;;;;;;4976168;28;20041;-75
2023/02/19 13:52:00;;;;;;;0.20;0.20;;;7.20;99.90;;;;;;4975707;28;20037;-74